createdAt,value
2024-03-15T00:00:10.739Z,29.80
2024-03-15T00:01:10.677Z,29.80
2024-03-15T00:02:10.701Z,29.81
2024-03-15T00:03:10.668Z,29.80
2024-03-15T00:04:10.672Z,29.80
2024-03-15T00:05:10.696Z,29.80
2024-03-15T00:06:10.691Z,29.80
2024-03-15T00:07:10.683Z,29.80
2024-03-15T00:08:10.668Z,29.80
2024-03-15T00:09:10.784Z,29.79
2024-03-15T00:10:10.681Z,29.79
2024-03-15T00:11:10.791Z,29.80
2024-03-15T00:12:10.690Z,29.81
2024-03-15T00:13:10.728Z,29.83
2024-03-15T00:14:10.678Z,29.80
2024-03-15T00:15:10.802Z,29.81
2024-03-15T00:16:10.685Z,29.80
2024-03-15T00:17:10.690Z,29.79
2024-03-15T00:18:10.855Z,29.81
2024-03-15T00:19:10.703Z,29.79
2024-03-15T00:20:10.692Z,29.80
2024-03-15T00:21:10.749Z,29.80
2024-03-15T00:22:10.707Z,29.80
2024-03-15T00:23:10.703Z,29.80
2024-03-15T00:24:10.777Z,29.80
2024-03-15T00:25:10.714Z,29.80
2024-03-15T00:26:10.720Z,29.81
2024-03-15T00:27:10.759Z,29.79
2024-03-15T00:28:10.709Z,29.80
2024-03-15T00:29:10.737Z,29.80
2024-03-15T00:30:10.741Z,29.80
2024-03-15T00:31:10.719Z,29.83
2024-03-15T00:32:10.736Z,29.80
2024-03-15T00:33:10.792Z,29.81
2024-03-15T00:34:10.734Z,29.80
2024-03-15T00:35:10.721Z,29.81
2024-03-15T00:36:10.719Z,29.81
2024-03-15T00:37:10.738Z,29.83
2024-03-15T00:38:10.717Z,29.79
2024-03-15T00:39:10.760Z,29.81
2024-03-15T00:40:10.757Z,29.81
2024-03-15T00:41:10.726Z,29.81
2024-03-15T00:42:10.838Z,29.81
2024-03-15T00:43:10.721Z,29.81
2024-03-15T00:44:10.741Z,29.83
2024-03-15T00:45:10.757Z,29.80
2024-03-15T00:46:10.796Z,29.83
2024-03-15T00:47:10.744Z,29.81
2024-03-15T00:48:10.827Z,29.83
2024-03-15T00:49:10.776Z,29.80
2024-03-15T00:50:10.739Z,29.79
2024-03-15T00:51:10.781Z,29.81
2024-03-15T00:52:10.780Z,29.81
2024-03-15T00:53:10.750Z,29.81
2024-03-15T00:54:10.840Z,29.80
2024-03-15T00:55:10.759Z,29.81
2024-03-15T00:56:10.753Z,29.80
2024-03-15T00:57:10.771Z,29.81
2024-03-15T00:58:10.757Z,29.83
2024-03-15T00:59:10.760Z,29.80
2024-03-15T01:00:10.801Z,29.81
2024-03-15T01:01:10.791Z,29.83
2024-03-15T01:02:10.759Z,29.80
2024-03-15T01:03:10.765Z,29.80
2024-03-15T01:04:10.751Z,29.80
2024-03-15T01:05:10.791Z,29.80
2024-03-15T01:06:10.825Z,29.83
2024-03-15T01:07:10.767Z,29.81
2024-03-15T01:08:10.772Z,29.81
2024-03-15T01:09:10.776Z,29.80
2024-03-15T01:10:10.774Z,29.84
2024-03-15T01:11:10.790Z,29.80
2024-03-15T01:12:10.826Z,29.80
2024-03-15T01:13:10.780Z,29.83
2024-03-15T01:14:10.766Z,29.81
2024-03-15T01:15:10.833Z,29.83
2024-03-15T01:16:10.770Z,29.81
2024-03-15T01:17:10.795Z,29.83
2024-03-15T01:18:10.896Z,29.81
2024-03-15T01:19:10.815Z,29.83
2024-03-15T01:20:10.815Z,29.84
2024-03-15T01:21:10.821Z,29.83
2024-03-15T01:22:10.845Z,29.83
2024-03-15T01:23:10.793Z,29.81
2024-03-15T01:24:10.835Z,29.84
2024-03-15T01:25:10.826Z,29.81
2024-03-15T01:26:10.802Z,29.83
2024-03-15T01:27:10.840Z,29.83
2024-03-15T01:28:10.806Z,29.81
2024-03-15T01:29:10.803Z,29.81
2024-03-15T01:30:10.837Z,29.79
2024-03-15T01:31:10.811Z,29.84
2024-03-15T01:32:10.825Z,29.81
2024-03-15T01:33:10.846Z,29.81
2024-03-15T01:34:10.799Z,29.79
2024-03-15T01:35:10.826Z,29.80
2024-03-15T01:36:10.823Z,29.80
2024-03-15T01:37:10.825Z,29.80
2024-03-15T01:38:10.812Z,29.83
2024-03-15T01:39:10.847Z,29.81
2024-03-15T01:40:10.915Z,29.80
2024-03-15T01:41:10.814Z,29.80
2024-03-15T01:42:10.842Z,29.81
2024-03-15T01:43:10.866Z,29.81
2024-03-15T01:44:10.839Z,29.83
2024-03-15T01:45:10.870Z,29.80
2024-03-15T01:46:10.815Z,29.81
2024-03-15T01:47:10.825Z,29.81
2024-03-15T01:48:10.981Z,29.81
2024-03-15T01:49:10.867Z,29.80
2024-03-15T01:50:10.818Z,29.79
2024-03-15T01:51:10.862Z,29.83
2024-03-15T01:52:10.826Z,29.81
2024-03-15T01:53:10.823Z,29.80
2024-03-15T01:54:10.871Z,29.84
2024-03-15T01:55:10.831Z,29.83
2024-03-15T01:56:10.838Z,29.81
2024-03-15T01:57:10.870Z,29.81
2024-03-15T01:58:10.832Z,29.83
2024-03-15T01:59:10.838Z,29.81
2024-03-15T02:00:10.900Z,29.83
2024-03-15T02:01:10.881Z,29.83
2024-03-15T02:02:10.860Z,29.80
2024-03-15T02:03:10.880Z,29.83
2024-03-15T02:04:10.844Z,29.83
2024-03-15T02:05:10.843Z,29.81
2024-03-15T02:06:10.863Z,29.81
2024-03-15T02:07:10.887Z,29.83
2024-03-15T02:08:10.867Z,29.83
2024-03-15T02:09:10.904Z,29.84
2024-03-15T02:10:10.928Z,29.83
2024-03-15T02:11:10.909Z,29.80
2024-03-15T02:12:10.892Z,29.85
2024-03-15T02:13:10.850Z,29.84
2024-03-15T02:14:10.856Z,29.81
2024-03-15T02:15:10.884Z,29.80
2024-03-15T02:16:10.858Z,29.81
2024-03-15T02:17:10.863Z,29.84
2024-03-15T02:18:11.006Z,29.83
2024-03-15T02:19:10.937Z,29.83
2024-03-15T02:20:10.870Z,29.81
2024-03-15T02:21:10.875Z,29.81
2024-03-15T02:22:10.883Z,29.81
2024-03-15T02:23:10.876Z,29.81
2024-03-15T02:24:10.870Z,29.83
2024-03-15T02:25:10.875Z,29.81
2024-03-15T02:26:10.895Z,29.81
2024-03-15T02:27:10.905Z,29.80
2024-03-15T02:28:10.882Z,29.81
2024-03-15T02:29:10.912Z,29.81
2024-03-15T02:30:10.930Z,29.84
2024-03-15T02:31:10.886Z,29.83
2024-03-15T02:32:10.899Z,29.81
2024-03-15T02:33:10.984Z,29.83
2024-03-15T02:34:10.925Z,29.81
2024-03-15T02:35:19.896Z,29.81
2024-03-15T02:36:11.984Z,29.83
2024-03-15T02:37:10.907Z,29.84
2024-03-15T02:38:10.915Z,29.84
2024-03-15T02:39:10.925Z,29.81
2024-03-15T02:40:10.908Z,29.83
2024-03-15T02:41:10.900Z,29.80
2024-03-15T02:42:10.942Z,29.83
2024-03-15T02:43:10.912Z,29.83
2024-03-15T02:44:10.937Z,29.84
2024-03-15T02:45:10.936Z,29.81
2024-03-15T02:46:10.912Z,29.83
2024-03-15T02:47:10.916Z,29.84
2024-03-15T02:48:10.979Z,29.83
2024-03-15T02:49:10.933Z,29.83
2024-03-15T02:50:10.950Z,29.84
2024-03-15T02:51:10.975Z,29.81
2024-03-15T02:52:10.948Z,29.81
2024-03-15T02:53:10.926Z,29.84
2024-03-15T02:54:14.579Z,29.83
2024-03-15T02:55:10.927Z,29.83
2024-03-15T02:56:10.930Z,29.83
2024-03-15T02:57:11.036Z,29.83
2024-03-15T02:58:10.955Z,29.81
2024-03-15T02:59:10.969Z,29.85
2024-03-15T03:00:11.070Z,29.83
2024-03-15T03:01:10.965Z,29.84
2024-03-15T03:02:10.961Z,29.81
2024-03-15T03:03:10.987Z,29.83
2024-03-15T03:04:10.938Z,29.84
2024-03-15T03:05:10.955Z,29.84
2024-03-15T03:06:10.967Z,29.84
2024-03-15T03:07:10.959Z,29.84
2024-03-15T03:08:10.948Z,29.83
2024-03-15T03:09:11.129Z,29.85
2024-03-15T03:10:10.949Z,29.83
2024-03-15T03:11:10.973Z,29.83
2024-03-15T03:12:11.229Z,29.83
2024-03-15T03:13:11.026Z,29.84
2024-03-15T03:14:10.957Z,29.80
2024-03-15T03:15:10.983Z,29.80
2024-03-15T03:16:11.012Z,29.80
2024-03-15T03:17:10.975Z,29.80
2024-03-15T03:18:11.035Z,29.77
2024-03-15T03:19:11.143Z,29.73
2024-03-15T03:20:10.978Z,29.67
2024-03-15T03:21:11.019Z,29.57
2024-03-15T03:22:10.987Z,29.52
2024-03-15T03:23:10.973Z,29.45
2024-03-15T03:24:11.003Z,29.36
2024-03-15T03:25:10.987Z,29.30
2024-03-15T03:26:10.983Z,29.26
2024-03-15T03:27:11.011Z,29.19
2024-03-15T03:28:11.024Z,29.18
2024-03-15T03:29:10.996Z,29.10
2024-03-15T03:30:11.025Z,29.10
2024-03-15T03:31:10.994Z,29.04
2024-03-15T03:32:13.132Z,29.01
2024-03-15T03:33:11.256Z,29.01
2024-03-15T03:34:11.000Z,28.97
2024-03-15T03:35:11.021Z,28.93
2024-03-15T03:36:11.033Z,28.90
2024-03-15T03:37:11.008Z,28.90
2024-03-15T03:38:11.023Z,28.86
2024-03-15T03:39:11.036Z,28.83
2024-03-15T03:40:11.007Z,28.83
2024-03-15T03:41:11.049Z,28.83
2024-03-15T03:42:11.036Z,28.77
2024-03-15T03:43:11.046Z,28.77
2024-03-15T03:44:11.023Z,28.77
2024-03-15T03:45:11.037Z,28.77
2024-03-15T03:46:11.014Z,28.73
2024-03-15T03:47:11.021Z,28.71
2024-03-15T03:48:11.267Z,28.69
2024-03-15T03:49:11.027Z,28.71
2024-03-15T03:50:11.023Z,28.67
2024-03-15T03:51:11.102Z,28.69
2024-03-15T03:52:11.134Z,28.70
2024-03-15T03:53:11.254Z,28.69
2024-03-15T03:54:11.336Z,28.64
2024-03-15T03:55:11.349Z,28.69
2024-03-15T03:56:11.407Z,28.67
2024-03-15T03:57:11.708Z,28.64
2024-03-15T03:58:11.572Z,28.62
2024-03-15T03:59:11.593Z,28.63
2024-03-15T04:00:11.659Z,28.60
2024-03-15T04:01:13.099Z,28.60
2024-03-15T04:02:11.774Z,28.57
2024-03-15T04:03:11.728Z,28.59
2024-03-15T04:04:11.695Z,28.59
2024-03-15T04:05:11.729Z,28.56
2024-03-15T04:06:11.760Z,28.57
2024-03-15T04:07:11.695Z,28.56
2024-03-15T04:08:11.706Z,28.57
2024-03-15T04:09:11.741Z,28.55
2024-03-15T04:10:11.735Z,28.56
2024-03-15T04:11:11.717Z,28.55
2024-03-15T04:12:11.730Z,28.53
2024-03-15T04:13:11.733Z,28.53
2024-03-15T04:14:11.697Z,28.53
2024-03-15T04:15:21.045Z,28.55
2024-03-15T04:16:12.842Z,28.53
2024-03-15T04:17:11.724Z,28.50
2024-03-15T04:18:11.774Z,28.52
2024-03-15T04:19:11.708Z,28.49
2024-03-15T04:20:11.712Z,28.50
2024-03-15T04:21:11.801Z,28.48
2024-03-15T04:22:11.772Z,28.49
2024-03-15T04:23:11.729Z,28.48
2024-03-15T04:24:11.728Z,28.46
2024-03-15T04:25:11.708Z,28.45
2024-03-15T04:26:11.747Z,28.43
2024-03-15T04:27:11.752Z,28.43
2024-03-15T04:28:11.725Z,28.39
2024-03-15T04:29:11.713Z,28.40
2024-03-15T04:30:11.771Z,28.40
2024-03-15T04:31:11.724Z,28.42
2024-03-15T04:32:11.778Z,28.40
2024-03-15T04:33:11.774Z,28.38
2024-03-15T04:34:11.838Z,28.39
2024-03-15T04:35:11.730Z,28.38
2024-03-15T04:36:19.007Z,28.34
2024-03-15T04:37:18.986Z,28.36
2024-03-15T04:38:18.986Z,28.38
2024-03-15T04:39:19.052Z,28.38
2024-03-15T04:40:19.001Z,28.36
2024-03-15T04:41:18.997Z,28.35
2024-03-15T04:42:19.053Z,28.35
2024-03-15T04:43:18.997Z,28.34
2024-03-15T04:44:19.008Z,28.35
2024-03-15T04:45:19.109Z,28.35
2024-03-15T04:46:19.006Z,28.34
2024-03-15T04:47:19.001Z,28.36
2024-03-15T04:48:19.096Z,28.34
2024-03-15T04:49:19.002Z,28.31
2024-03-15T04:50:19.013Z,28.32
2024-03-15T04:51:19.050Z,28.31
2024-03-15T04:52:19.028Z,28.31
2024-03-15T04:53:19.013Z,28.31
2024-03-15T04:54:19.064Z,28.31
2024-03-15T04:55:19.017Z,28.32
2024-03-15T04:56:19.043Z,28.32
2024-03-15T04:57:19.058Z,28.32
2024-03-15T04:58:19.030Z,28.31
2024-03-15T04:59:19.025Z,28.32
2024-03-15T05:00:19.603Z,28.31
2024-03-15T05:01:19.122Z,28.31
2024-03-15T05:02:19.039Z,28.29
2024-03-15T05:03:19.066Z,28.31
2024-03-15T05:04:19.082Z,28.29
2024-03-15T05:05:19.226Z,28.29
2024-03-15T05:06:23.814Z,28.28
2024-03-15T05:07:20.080Z,28.26
2024-03-15T05:08:19.058Z,28.26
2024-03-15T05:09:19.140Z,28.23
2024-03-15T05:10:19.740Z,28.28
2024-03-15T05:11:19.057Z,28.26
2024-03-15T05:12:19.095Z,28.25
2024-03-15T05:13:19.048Z,28.25
2024-03-15T05:14:19.048Z,28.25
2024-03-15T05:15:19.250Z,28.26
2024-03-15T05:16:19.048Z,28.25
2024-03-15T05:17:19.088Z,28.22
2024-03-15T05:18:19.144Z,28.21
2024-03-15T05:19:22.033Z,28.21
2024-03-15T05:20:19.060Z,28.21
2024-03-15T05:21:19.067Z,28.19
2024-03-15T05:22:19.070Z,28.16
2024-03-15T05:23:19.066Z,28.21
2024-03-15T05:24:19.180Z,28.19
2024-03-15T05:25:19.072Z,28.21
2024-03-15T05:26:19.079Z,28.18
2024-03-15T05:27:19.154Z,28.18
2024-03-15T05:28:19.090Z,28.19
2024-03-15T05:29:19.092Z,28.18
2024-03-15T05:30:19.595Z,28.16
2024-03-15T05:31:19.080Z,28.16
2024-03-15T05:32:19.085Z,28.16
2024-03-15T05:33:19.172Z,28.15
2024-03-15T05:34:19.198Z,28.16
2024-03-15T05:35:19.104Z,28.15
2024-03-15T05:36:19.102Z,28.16
2024-03-15T05:37:19.102Z,28.16
2024-03-15T05:38:19.097Z,28.16
2024-03-15T05:39:19.133Z,28.16
2024-03-15T05:40:19.410Z,28.15
2024-03-15T05:41:19.094Z,28.16
2024-03-15T05:42:19.129Z,28.14
2024-03-15T05:43:19.092Z,28.15
2024-03-15T05:44:19.100Z,28.14
2024-03-15T05:45:19.178Z,28.14
2024-03-15T05:46:19.116Z,28.15
2024-03-15T05:47:19.119Z,28.15
2024-03-15T05:48:19.219Z,28.14
2024-03-15T05:49:19.124Z,28.15
2024-03-15T05:50:19.118Z,28.14
2024-03-15T05:51:19.154Z,28.15
2024-03-15T05:52:19.117Z,28.15
2024-03-15T05:53:19.121Z,28.11
2024-03-15T05:54:19.154Z,28.14
2024-03-15T05:55:19.130Z,28.14
2024-03-15T05:56:19.122Z,28.14
2024-03-15T05:57:19.200Z,28.12
2024-03-15T05:58:19.152Z,28.15
2024-03-15T05:59:19.131Z,28.15
2024-03-15T06:00:19.216Z,28.14
2024-03-15T06:01:19.175Z,28.11
2024-03-15T06:02:19.172Z,28.12
2024-03-15T06:03:19.186Z,28.12
2024-03-15T06:04:19.145Z,28.09
2024-03-15T06:05:19.134Z,28.09
2024-03-15T06:06:19.313Z,28.11
2024-03-15T06:07:19.216Z,28.08
2024-03-15T06:08:19.255Z,28.08
2024-03-15T06:09:19.276Z,28.07
2024-03-15T06:10:19.347Z,28.08
2024-03-15T06:11:19.304Z,28.07
2024-03-15T06:12:19.442Z,28.08
2024-03-15T06:13:19.405Z,28.04
2024-03-15T06:14:19.401Z,28.04
2024-03-15T06:15:19.488Z,28.07
2024-03-15T06:16:19.399Z,28.07
2024-03-15T06:17:19.424Z,28.04
2024-03-15T06:18:19.467Z,28.04
2024-03-15T06:19:19.391Z,28.03
2024-03-15T06:20:19.375Z,28.04
2024-03-15T06:21:19.418Z,28.05
2024-03-15T06:22:19.404Z,28.05
2024-03-15T06:23:19.411Z,28.08
2024-03-15T06:24:19.431Z,28.07
2024-03-15T06:25:19.392Z,28.09
2024-03-15T06:26:19.415Z,28.08
2024-03-15T06:27:19.386Z,28.09
2024-03-15T06:28:19.396Z,28.11
2024-03-15T06:29:19.535Z,28.12
2024-03-15T06:30:19.478Z,28.12
2024-03-15T06:31:19.400Z,28.11
2024-03-15T06:32:19.434Z,28.12
2024-03-15T06:33:19.459Z,28.12
2024-03-15T06:34:19.407Z,28.12
2024-03-15T06:35:19.414Z,28.11
2024-03-15T06:36:19.440Z,28.14
2024-03-15T06:37:19.449Z,28.11
2024-03-15T06:38:19.437Z,28.11
2024-03-15T06:39:19.510Z,28.11
2024-03-15T06:40:19.434Z,28.12
2024-03-15T06:41:19.422Z,28.09
2024-03-15T06:42:19.425Z,28.12
2024-03-15T06:43:19.427Z,28.12
2024-03-15T06:44:19.413Z,28.09
2024-03-15T06:45:19.456Z,28.09
2024-03-15T06:46:19.429Z,28.05
2024-03-15T06:47:19.820Z,27.94
2024-03-15T06:48:19.803Z,28.05
2024-03-15T06:49:19.433Z,28.08
2024-03-15T06:50:19.459Z,28.11
2024-03-15T06:51:19.523Z,28.08
2024-03-15T06:52:19.445Z,28.14
2024-03-15T06:53:20.460Z,28.12
2024-03-15T06:54:20.505Z,28.14
2024-03-15T06:55:19.440Z,28.14
2024-03-15T06:56:19.449Z,28.16
2024-03-15T06:57:19.514Z,28.16
2024-03-15T06:58:24.047Z,28.19
2024-03-15T06:59:20.475Z,28.19
2024-03-15T07:00:19.536Z,28.19
2024-03-15T07:01:19.512Z,28.22
2024-03-15T07:02:19.470Z,28.22
2024-03-15T07:03:19.522Z,28.22
2024-03-15T07:04:19.482Z,28.21
2024-03-15T07:05:19.496Z,28.22
2024-03-15T07:06:19.505Z,28.23
2024-03-15T07:07:19.468Z,28.23
2024-03-15T07:08:19.471Z,28.22
2024-03-15T07:09:19.490Z,28.23
2024-03-15T07:10:19.473Z,28.28
2024-03-15T07:11:19.473Z,28.29
2024-03-15T07:12:19.486Z,28.32
2024-03-15T07:13:19.485Z,28.31
2024-03-15T07:14:19.528Z,28.32
2024-03-15T07:15:19.496Z,28.34
2024-03-15T07:16:19.830Z,28.34
2024-03-15T07:17:19.557Z,28.39
2024-03-15T07:18:20.779Z,28.38
2024-03-15T07:19:19.598Z,28.36
2024-03-15T07:20:19.575Z,28.38
2024-03-15T07:21:19.614Z,28.38
2024-03-15T07:22:19.562Z,28.40
2024-03-15T07:23:19.510Z,28.39
2024-03-15T07:24:19.582Z,28.43
2024-03-15T07:25:19.520Z,28.46
2024-03-15T07:26:20.300Z,28.49
2024-03-15T07:27:19.627Z,28.56
2024-03-15T07:28:19.501Z,28.56
2024-03-15T07:29:19.850Z,28.59
2024-03-15T07:30:19.630Z,28.53
2024-03-15T07:31:19.486Z,28.57
2024-03-15T07:32:19.516Z,28.60
2024-03-15T07:33:19.569Z,28.62
2024-03-15T07:34:19.552Z,28.62
2024-03-15T07:35:19.494Z,28.64
2024-03-15T07:36:19.546Z,28.67
2024-03-15T07:37:19.651Z,28.70
2024-03-15T07:38:19.525Z,28.64
2024-03-15T07:39:19.549Z,28.71
2024-03-15T07:40:19.629Z,28.67
2024-03-15T07:41:19.729Z,28.71
2024-03-15T07:42:19.720Z,28.73
2024-03-15T07:43:19.672Z,28.73
2024-03-15T07:44:19.685Z,28.74
2024-03-15T07:45:19.758Z,28.77
2024-03-15T07:46:20.952Z,28.74
2024-03-15T07:47:20.679Z,28.77
2024-03-15T07:48:19.930Z,28.78
2024-03-15T07:49:19.873Z,28.77
2024-03-15T07:50:19.863Z,28.77
2024-03-15T07:51:19.799Z,28.77
2024-03-15T07:52:19.814Z,28.74
2024-03-15T07:53:19.807Z,28.76
2024-03-15T07:54:19.860Z,28.70
2024-03-15T07:55:19.799Z,28.71
2024-03-15T07:56:19.787Z,28.76
2024-03-15T07:57:19.819Z,28.74
2024-03-15T07:58:19.946Z,28.76
2024-03-15T07:59:19.921Z,28.74
2024-03-15T08:00:19.851Z,28.73
2024-03-15T08:01:19.972Z,28.69
2024-03-15T08:02:19.995Z,28.69
2024-03-15T08:03:20.245Z,28.71
2024-03-15T08:04:19.830Z,28.71
2024-03-15T08:05:19.806Z,28.69
2024-03-15T08:06:19.930Z,28.69
2024-03-15T08:07:19.821Z,28.71
2024-03-15T08:08:19.927Z,28.70
2024-03-15T08:09:19.862Z,28.73
2024-03-15T08:10:20.120Z,28.71
2024-03-15T08:11:19.872Z,28.73
2024-03-15T08:12:19.883Z,28.71
2024-03-15T08:13:19.827Z,28.74
2024-03-15T08:14:19.914Z,28.70
2024-03-15T08:15:19.937Z,28.70
2024-03-15T08:16:20.387Z,28.70
2024-03-15T08:17:19.846Z,28.70
2024-03-15T08:18:19.894Z,28.69
2024-03-15T08:19:19.990Z,28.66
2024-03-15T08:20:19.897Z,28.69
2024-03-15T08:21:19.930Z,28.69
2024-03-15T08:22:20.063Z,28.69
2024-03-15T08:23:19.922Z,28.73
2024-03-15T08:24:20.079Z,28.71
2024-03-15T08:25:20.008Z,28.71
2024-03-15T08:26:20.033Z,28.71
2024-03-15T08:27:20.148Z,28.71
2024-03-15T08:28:20.263Z,28.64
2024-03-15T08:29:20.222Z,28.64
2024-03-15T08:30:20.384Z,28.66
2024-03-15T08:31:20.344Z,28.67
2024-03-15T08:32:20.748Z,28.69
2024-03-15T08:33:20.477Z,28.70
2024-03-15T08:34:20.850Z,28.67
2024-03-15T08:35:21.196Z,28.66
2024-03-15T08:36:20.750Z,28.66
2024-03-15T08:37:20.728Z,28.69
2024-03-15T08:38:21.236Z,28.64
2024-03-15T08:39:20.815Z,28.70
2024-03-15T08:40:20.866Z,28.71
2024-03-15T08:41:20.763Z,28.70
2024-03-15T08:42:20.815Z,28.70
2024-03-15T08:43:20.794Z,28.70
2024-03-15T08:44:20.833Z,28.70
2024-03-15T08:45:20.829Z,28.70
2024-03-15T08:46:20.818Z,28.69
2024-03-15T08:47:20.886Z,28.70
2024-03-15T08:48:21.805Z,28.70
2024-03-15T08:49:21.044Z,28.69
2024-03-15T08:50:20.894Z,28.67
2024-03-15T08:51:20.903Z,28.70
2024-03-15T08:52:20.987Z,28.71
2024-03-15T08:53:21.037Z,28.73
2024-03-15T08:54:21.112Z,28.73
2024-03-15T08:55:21.398Z,28.71
2024-03-15T08:56:21.376Z,28.73
2024-03-15T08:57:21.313Z,28.76
2024-03-15T08:58:21.318Z,28.76
2024-03-15T08:59:21.339Z,28.77
2024-03-15T09:00:21.392Z,28.76
2024-03-15T09:01:21.370Z,28.74
2024-03-15T09:02:21.351Z,28.71
2024-03-15T09:03:21.321Z,28.71
2024-03-15T09:04:21.380Z,28.71
2024-03-15T09:05:21.386Z,28.67
2024-03-15T09:06:21.331Z,28.67
2024-03-15T09:07:21.395Z,28.67
2024-03-15T09:08:21.391Z,28.69
2024-03-15T09:09:21.333Z,28.69
2024-03-15T09:10:21.557Z,28.66
2024-03-15T09:11:21.504Z,28.66
2024-03-15T09:12:21.366Z,28.69
2024-03-15T09:13:21.309Z,28.70
2024-03-15T09:14:22.322Z,28.70
2024-03-15T09:15:21.553Z,28.70
2024-03-15T09:16:21.392Z,28.71
2024-03-15T09:17:21.381Z,28.70
2024-03-15T09:18:21.439Z,28.71
2024-03-15T09:19:21.629Z,28.74
2024-03-15T09:20:21.625Z,28.76
2024-03-15T09:21:22.122Z,28.78
2024-03-15T09:22:21.740Z,28.80
2024-03-15T09:23:21.710Z,28.80
2024-03-15T09:24:21.781Z,28.83
2024-03-15T09:25:21.829Z,28.84
2024-03-15T09:26:21.943Z,28.86
2024-03-15T09:27:22.103Z,28.89
2024-03-15T09:28:22.275Z,28.90
2024-03-15T09:29:22.241Z,28.90
2024-03-15T09:30:22.195Z,28.94
2024-03-15T09:31:37.841Z,28.95
2024-03-15T09:32:23.321Z,28.94
2024-03-15T09:33:22.455Z,28.98
2024-03-15T09:34:22.351Z,28.98
2024-03-15T09:35:23.153Z,29.00
2024-03-15T09:36:23.357Z,29.02
2024-03-15T09:37:24.419Z,29.07
2024-03-15T09:38:22.262Z,29.07
2024-03-15T09:39:22.407Z,29.10
2024-03-15T09:40:22.685Z,29.10
2024-03-15T09:41:22.337Z,29.12
2024-03-15T09:42:22.559Z,29.14
2024-03-15T09:43:22.294Z,29.17
2024-03-15T09:44:22.381Z,29.18
2024-03-15T09:45:22.411Z,29.18
2024-03-15T09:46:22.354Z,29.18
2024-03-15T09:47:22.355Z,29.19
2024-03-15T09:48:22.428Z,29.21
2024-03-15T09:49:22.516Z,29.22
2024-03-15T09:50:22.367Z,29.25
2024-03-15T09:51:22.338Z,29.25
2024-03-15T09:52:22.282Z,29.28
2024-03-15T09:53:23.223Z,29.28
2024-03-15T09:54:22.286Z,29.30
2024-03-15T09:55:22.331Z,29.32
2024-03-15T09:56:22.391Z,29.32
2024-03-15T09:57:22.322Z,29.35
2024-03-15T09:58:22.450Z,29.32
2024-03-15T09:59:22.331Z,29.38
2024-03-15T10:00:24.529Z,29.40
2024-03-15T10:01:22.429Z,29.36
2024-03-15T10:02:22.341Z,29.38
2024-03-15T10:03:22.575Z,29.39
2024-03-15T10:04:22.404Z,29.39
2024-03-15T10:05:22.348Z,29.39
2024-03-15T10:06:22.362Z,29.40
2024-03-15T10:07:22.774Z,29.42
2024-03-15T10:08:22.332Z,29.45
2024-03-15T10:09:22.365Z,29.42
2024-03-15T10:10:22.321Z,29.44
2024-03-15T10:11:22.445Z,29.40
2024-03-15T10:12:22.368Z,29.39
2024-03-15T10:13:22.370Z,29.39
2024-03-15T10:14:22.395Z,29.39
2024-03-15T10:15:22.507Z,29.36
2024-03-15T10:16:22.334Z,29.33
2024-03-15T10:17:22.375Z,29.32
2024-03-15T10:18:22.471Z,29.26
2024-03-15T10:19:23.365Z,29.19
2024-03-15T10:20:22.486Z,29.14
2024-03-15T10:21:22.428Z,29.10
2024-03-15T10:22:22.368Z,29.04
2024-03-15T10:23:22.369Z,29.01
2024-03-15T10:24:22.384Z,29.01
2024-03-15T10:25:23.731Z,28.98
2024-03-15T10:26:22.399Z,29.01
2024-03-15T10:27:22.438Z,29.02
2024-03-15T10:28:22.544Z,29.02
2024-03-15T10:29:22.376Z,29.05
2024-03-15T10:30:22.352Z,29.11
2024-03-15T10:31:23.255Z,29.12
2024-03-15T10:32:22.466Z,29.18
2024-03-15T10:33:22.483Z,29.19
2024-03-15T10:34:22.350Z,29.22
2024-03-15T10:35:22.408Z,29.26
2024-03-15T10:36:22.448Z,29.29
2024-03-15T10:37:22.368Z,29.33
2024-03-15T10:38:22.388Z,29.35
2024-03-15T10:39:22.382Z,29.39
2024-03-15T10:40:22.382Z,29.42
2024-03-15T10:41:22.395Z,29.44
2024-03-15T10:42:22.426Z,29.49
2024-03-15T10:43:22.391Z,29.49
2024-03-15T10:44:22.381Z,29.50
2024-03-15T10:45:22.393Z,29.53
2024-03-15T10:46:22.396Z,29.56
2024-03-15T10:47:22.563Z,29.59
2024-03-15T10:48:22.533Z,29.60
2024-03-15T10:49:23.282Z,29.62
2024-03-15T10:50:22.452Z,29.62
2024-03-15T10:51:22.526Z,29.63
2024-03-15T10:52:22.496Z,29.66
2024-03-15T10:53:22.722Z,29.67
2024-03-15T10:54:22.471Z,29.69
2024-03-15T10:55:23.281Z,29.72
2024-03-15T10:56:22.452Z,29.73
2024-03-15T10:57:22.437Z,29.77
2024-03-15T10:58:22.421Z,29.79
2024-03-15T10:59:22.426Z,29.80
2024-03-15T11:00:22.487Z,29.81
2024-03-15T11:01:22.606Z,29.80
2024-03-15T11:02:22.483Z,29.84
2024-03-15T11:03:22.662Z,29.85
2024-03-15T11:04:22.482Z,29.88
2024-03-15T11:05:22.468Z,29.88
2024-03-15T11:06:22.468Z,29.91
2024-03-15T11:07:22.412Z,29.94
2024-03-15T11:08:23.361Z,29.93
2024-03-15T11:09:22.438Z,29.96
2024-03-15T11:10:22.513Z,29.97
2024-03-15T11:11:23.050Z,29.99
2024-03-15T11:12:22.483Z,30.00
2024-03-15T11:13:22.425Z,30.03
2024-03-15T11:14:22.492Z,30.03
2024-03-15T11:15:22.488Z,30.04
2024-03-15T11:16:22.561Z,30.04
2024-03-15T11:17:23.696Z,30.08
2024-03-15T11:18:22.736Z,30.08
2024-03-15T11:19:22.793Z,30.11
2024-03-15T11:20:22.593Z,30.10
2024-03-15T11:21:23.250Z,30.11
2024-03-15T11:22:22.596Z,30.12
2024-03-15T11:23:22.576Z,30.12
2024-03-15T11:24:22.677Z,30.12
2024-03-15T11:25:22.596Z,30.15
2024-03-15T11:26:22.955Z,30.15
2024-03-15T11:27:23.365Z,30.15
2024-03-15T11:28:22.809Z,30.18
2024-03-15T11:29:22.600Z,30.17
2024-03-15T11:30:22.641Z,30.18
2024-03-15T11:31:22.642Z,30.19
2024-03-15T11:32:22.691Z,30.18
2024-03-15T11:33:22.895Z,30.22
2024-03-15T11:34:22.839Z,30.19
2024-03-15T11:35:22.941Z,30.24
2024-03-15T11:36:22.852Z,30.22
2024-03-15T11:37:22.892Z,30.24
2024-03-15T11:38:24.368Z,30.27
2024-03-15T11:39:22.974Z,30.25
2024-03-15T11:40:23.018Z,30.27
2024-03-15T11:41:23.244Z,30.27
2024-03-15T11:42:23.190Z,30.28
2024-03-15T11:43:23.361Z,30.29
2024-03-15T11:44:23.341Z,30.31
2024-03-15T11:45:23.398Z,30.31
2024-03-15T11:46:23.424Z,30.31
2024-03-15T11:47:23.497Z,30.34
2024-03-15T11:48:23.552Z,30.32
2024-03-15T11:49:23.509Z,30.35
2024-03-15T11:50:23.466Z,30.38
2024-03-15T11:51:23.568Z,30.35
2024-03-15T11:52:23.464Z,30.36
2024-03-15T11:53:23.578Z,30.39
2024-03-15T11:54:23.555Z,30.39
2024-03-15T11:55:23.470Z,30.42
2024-03-15T11:56:23.495Z,30.42
2024-03-15T11:57:23.563Z,30.39
2024-03-15T11:58:23.523Z,30.40
2024-03-15T11:59:23.498Z,30.42
2024-03-15T12:00:23.557Z,30.43
2024-03-15T12:01:23.669Z,30.43
2024-03-15T12:02:23.837Z,30.45
2024-03-15T12:03:23.565Z,30.46
2024-03-15T12:04:23.586Z,30.47
2024-03-15T12:05:23.509Z,30.46
2024-03-15T12:06:23.553Z,30.46
2024-03-15T12:07:23.525Z,30.47
2024-03-15T12:08:23.651Z,30.46
2024-03-15T12:09:23.667Z,30.52
2024-03-15T12:10:23.640Z,30.50
2024-03-15T12:11:23.810Z,30.52
2024-03-15T12:12:23.710Z,30.53
2024-03-15T12:13:23.810Z,30.53
2024-03-15T12:14:23.734Z,30.56
2024-03-15T12:15:23.723Z,30.55
2024-03-15T12:16:23.759Z,30.56
2024-03-15T12:17:23.730Z,30.59
2024-03-15T12:18:23.993Z,30.59
2024-03-15T12:19:23.823Z,30.59
2024-03-15T12:20:24.282Z,30.61
2024-03-15T12:21:23.813Z,30.61
2024-03-15T12:22:23.845Z,30.63
2024-03-15T12:23:25.094Z,30.62
2024-03-15T12:24:23.921Z,30.62
2024-03-15T12:25:23.964Z,30.61
2024-03-15T12:26:23.916Z,30.63
2024-03-15T12:27:23.936Z,30.65
2024-03-15T12:28:24.075Z,30.67
2024-03-15T12:29:23.944Z,30.66
2024-03-15T12:30:24.862Z,30.67
2024-03-15T12:31:23.881Z,30.67
2024-03-15T12:32:23.897Z,30.69
2024-03-15T12:33:24.010Z,30.69
2024-03-15T12:34:23.952Z,30.69
2024-03-15T12:35:23.887Z,30.67
2024-03-15T12:36:23.919Z,30.73
2024-03-15T12:37:23.897Z,30.70
2024-03-15T12:38:23.948Z,30.74
2024-03-15T12:39:23.940Z,30.74
2024-03-15T12:40:23.897Z,30.74
2024-03-15T12:41:23.900Z,30.76
2024-03-15T12:42:23.936Z,30.74
2024-03-15T12:43:23.911Z,30.76
2024-03-15T12:44:23.943Z,30.77
2024-03-15T12:45:23.957Z,30.77
2024-03-15T12:46:23.962Z,30.79
2024-03-15T12:47:23.909Z,30.74
2024-03-15T12:48:23.951Z,30.79
2024-03-15T12:49:23.917Z,30.79
2024-03-15T12:50:23.922Z,30.77
2024-03-15T12:51:23.978Z,30.80
2024-03-15T12:52:24.008Z,30.79